Time;durP1;ratioP1;P1;durP2;ratioP2;P2;SDS_P1;SDS_P2;PMS_P1;PMS_P2;Temp;Humidity;BMP_temperature;BMP_pressure;BME280_temperature;BME280_humidity;BME280_pressure;Samples;Min_cycle;Max_cycle;Signal;HPM_P1;HPM_P2
2023/08/07 00:01:12;;;;;;;5.47;2.10;;;;;13.80;98397.00;;;;5078005;28;20493;-64
2023/08/07 00:03:39;;;;;;;5.90;1.58;;;;;13.80;98390.00;;;;5059624;28;20058;-64
2023/08/07 00:06:06;;;;;;;3.05;1.55;;;;;13.80;98393.00;;;;5060106;28;20102;-63
2023/08/07 00:08:33;;;;;;;10.27;2.38;;;;;13.80;98391.00;;;;5062083;28;20063;-64
2023/08/07 00:11:10;;;;;;;6.82;1.50;;;;;13.80;98387.00;;;;5062111;28;20080;-64
2023/08/07 00:13:37;;;;;;;2.80;1.42;;;;;13.70;98396.00;;;;5080343;28;20560;-64
2023/08/07 00:16:04;;;;;;;11.93;2.10;;;;;13.70;98402.00;;;;5076795;28;20059;-64
2023/08/07 00:18:30;;;;;;;9.35;2.25;;;;;13.70;98403.00;;;;5075383;28;20053;-64
2023/08/07 00:20:57;;;;;;;6.13;1.70;;;;;13.70;98403.00;;;;5075561;28;20045;-64
2023/08/07 00:23:23;;;;;;;4.65;1.60;;;;;13.70;98419.00;;;;5058483;28;20048;-64
2023/08/07 00:25:50;;;;;;;4.13;1.55;;;;;13.70;98408.00;;;;5057942;28;20040;-64
2023/08/07 00:28:17;;;;;;;3.35;1.83;;;;;13.70;98408.00;;;;5057522;28;20075;-64
2023/08/07 00:30:43;;;;;;;5.50;1.85;;;;;13.70;98405.00;;;;5075308;28;20109;-64
2023/08/07 00:33:10;;;;;;;8.15;2.03;;;;;13.70;98402.00;;;;5057670;28;20056;-64
2023/08/07 00:35:36;;;;;;;5.15;1.58;;;;;13.70;98399.00;;;;5057453;28;20068;-64
2023/08/07 00:38:05;;;;;;;6.10;1.80;;;;;13.70;98395.00;;;;5058177;28;20046;-64
2023/08/07 00:40:39;;;;;;;2.08;1.35;;;;;13.70;98403.00;;;;5075412;28;20047;-64
2023/08/07 00:43:06;;;;;;;6.05;1.40;;;;;13.70;98413.00;;;;5057795;28;20596;-64
2023/08/07 00:45:46;;;;;;;7.20;2.15;;;;;13.70;98400.00;;;;5075396;28;20046;-64
2023/08/07 00:48:14;;;;;;;3.90;1.48;;;;;13.60;98406.00;;;;5057447;28;20048;-63
2023/08/07 00:50:42;;;;;;;4.65;1.45;;;;;13.60;98409.00;;;;5040448;28;20063;-64
2023/08/07 00:53:11;;;;;;;6.60;2.03;;;;;13.50;98403.00;;;;5056879;28;20055;-64
2023/08/07 00:55:38;;;;;;;4.50;1.75;;;;;13.60;98412.00;;;;5075032;28;20036;-63
2023/08/07 00:58:04;;;;;;;5.07;1.90;;;;;13.50;98410.00;;;;5040377;28;20135;-64
2023/08/07 01:00:31;;;;;;;5.30;1.90;;;;;13.50;98412.00;;;;5074512;28;20040;-64
2023/08/07 01:02:59;;;;;;;2.88;1.83;;;;;13.50;98418.00;;;;5056923;28;20048;-64
2023/08/07 01:05:27;;;;;;;6.45;1.98;;;;;13.60;98416.00;;;;5057335;28;20045;-64
2023/08/07 01:07:55;;;;;;;7.03;1.90;;;;;13.60;98416.00;;;;5056932;28;20453;-64
2023/08/07 01:10:51;;;;;;;9.35;2.10;;;;;13.50;98411.00;;;;5040222;28;20045;-63
2023/08/07 01:13:29;;;;;;;5.82;2.03;;;;;13.50;98408.00;;;;5056722;28;20045;-64
2023/08/07 01:16:00;;;;;;;4.80;2.40;;;;;13.50;98404.00;;;;5040366;28;20049;-64
2023/08/07 01:18:28;;;;;;;4.57;1.80;;;;;13.50;98408.00;;;;5056610;28;20059;-64
2023/08/07 01:20:54;;;;;;;2.92;1.52;;;;;13.40;98407.00;;;;5056526;28;20045;-64
2023/08/07 01:23:21;;;;;;;3.88;1.60;;;;;13.40;98417.00;;;;5074117;28;20131;-63
2023/08/07 01:25:47;;;;;;;5.07;2.10;;;;;13.40;98410.00;;;;5056698;28;20051;-64
2023/08/07 01:28:17;;;;;;;7.85;2.08;;;;;13.40;98413.00;;;;5074282;28;20048;-64
2023/08/07 01:30:48;;;;;;;3.95;1.55;;;;;13.40;98403.00;;;;5056130;28;20079;-63
2023/08/07 01:33:22;;;;;;;5.07;1.80;;;;;13.40;98407.00;;;;5074161;28;20071;-63
2023/08/07 01:35:55;;;;;;;;;;;;;13.40;98411.00;;;;5056740;28;20097;-64
2023/08/07 01:38:25;;;;;;;5.75;1.73;;;;;13.40;98415.00;;;;5056375;28;19924;-63
2023/08/07 01:40:52;;;;;;;4.28;2.03;;;;;13.40;98411.00;;;;5055959;28;20143;-63
2023/08/07 01:43:19;;;;;;;4.65;1.70;;;;;13.40;98419.00;;;;5056200;28;20051;-64
2023/08/07 01:45:45;;;;;;;5.22;1.85;;;;;13.30;98419.00;;;;5057414;28;20051;-64
2023/08/07 01:48:12;;;;;;;6.82;2.00;;;;;13.30;98424.00;;;;5056279;28;20053;-63
2023/08/07 01:50:39;;;;;;;5.03;1.80;;;;;13.30;98419.00;;;;5058658;28;20114;-63
2023/08/07 01:53:05;;;;;;;4.68;1.88;;;;;13.30;98425.00;;;;5059151;28;20071;-64
2023/08/07 01:55:32;;;;;;;8.38;2.30;;;;;13.30;98424.00;;;;5058927;28;20079;-64
2023/08/07 01:57:59;;;;;;;9.23;2.08;;;;;13.30;98420.00;;;;5059187;28;20045;-63
2023/08/07 02:00:25;;;;;;;4.43;2.70;;;;;13.20;98429.00;;;;5057340;28;20128;-63
2023/08/07 02:02:52;;;;;;;6.90;2.28;;;;;13.20;98429.00;;;;5056943;28;20045;-63
2023/08/07 02:05:18;;;;;;;4.53;2.38;;;;;13.20;98434.00;;;;5056153;28;20506;-63
2023/08/07 02:07:45;;;;;;;3.95;2.17;;;;;13.20;98436.00;;;;5039269;28;20059;-64
2023/08/07 02:10:12;;;;;;;7.65;2.05;;;;;13.20;98433.00;;;;5055192;28;20512;-64
2023/08/07 02:12:38;;;;;;;7.18;2.08;;;;;13.20;98438.00;;;;5073439;28;20087;-64
2023/08/07 02:15:06;;;;;;;5.68;1.98;;;;;13.20;98445.00;;;;5039387;28;20052;-64
2023/08/07 02:17:38;;;;;;;7.70;2.67;;;;;13.20;98449.00;;;;5055546;28;20048;-63
2023/08/07 02:20:05;;;;;;;6.68;2.10;;;;;13.20;98447.00;;;;5055445;28;20131;-64
2023/08/07 02:22:32;;;;;;;5.90;1.90;;;;;13.20;98451.00;;;;5039153;28;20060;-64
2023/08/07 02:24:58;;;;;;;5.88;1.85;;;;;13.20;98444.00;;;;5039130;28;20044;-64
2023/08/07 02:27:25;;;;;;;5.47;2.13;;;;;13.20;98449.00;;;;5055253;28;20048;-64
2023/08/07 02:29:52;;;;;;;4.80;1.92;;;;;13.20;98450.00;;;;5055438;28;20044;-64
2023/08/07 02:32:18;;;;;;;5.13;1.95;;;;;13.20;98445.00;;;;5055439;28;20041;-64
2023/08/07 02:34:45;;;;;;;7.18;2.10;;;;;13.20;98453.00;;;;5073188;28;20040;-64
2023/08/07 02:37:11;;;;;;;4.82;2.20;;;;;13.30;98445.00;;;;5073258;28;20051;-64
2023/08/07 02:39:38;;;;;;;4.57;1.90;;;;;13.20;98451.00;;;;5054979;28;20047;-64
2023/08/07 02:42:05;;;;;;;3.92;1.90;;;;;13.20;98449.00;;;;5054932;28;20048;-64
2023/08/07 02:44:31;;;;;;;3.53;2.53;;;;;13.20;98451.00;;;;5054717;28;20048;-64
2023/08/07 02:46:58;;;;;;;4.55;2.15;;;;;13.20;98446.00;;;;5072808;28;20045;-64
2023/08/07 02:49:25;;;;;;;6.97;1.95;;;;;13.30;98456.00;;;;5054910;28;20051;-64
2023/08/07 02:51:51;;;;;;;3.20;1.80;;;;;13.30;98446.00;;;;5054923;28;20047;-64
2023/08/07 02:54:18;;;;;;;5.82;2.40;;;;;13.30;98459.00;;;;5054540;28;20052;-64
2023/08/07 02:56:44;;;;;;;5.80;2.50;;;;;13.30;98459.00;;;;5038110;28;20040;-64
2023/08/07 02:59:11;;;;;;;5.63;2.13;;;;;13.30;98460.00;;;;5054505;28;20052;-64
2023/08/07 03:01:37;;;;;;;5.60;2.55;;;;;13.30;98464.00;;;;5072676;28;20478;-64
2023/08/07 03:04:04;;;;;;;5.13;2.30;;;;;13.30;98464.00;;;;5072684;28;20052;-64
2023/08/07 03:06:31;;;;;;;3.45;1.80;;;;;13.30;98462.00;;;;5037987;28;20052;-64
2023/08/07 03:08:57;;;;;;;3.63;1.83;;;;;13.20;98459.00;;;;5072282;28;20052;-64
2023/08/07 03:11:24;;;;;;;3.53;1.70;;;;;13.20;98465.00;;;;5054562;28;20055;-63
2023/08/07 03:13:50;;;;;;;6.05;2.00;;;;;13.30;98458.00;;;;5054371;28;20457;-63
2023/08/07 03:16:17;;;;;;;6.60;2.70;;;;;13.30;98455.00;;;;5037380;28;20048;-64
2023/08/07 03:18:43;;;;;;;6.85;2.17;;;;;13.40;98463.00;;;;5054353;28;20045;-64
2023/08/07 03:21:10;;;;;;;6.15;2.50;;;;;13.40;98461.00;;;;5072258;28;20047;-64
2023/08/07 03:23:38;;;;;;;6.05;2.13;;;;;13.40;98456.00;;;;5054557;28;20063;-64
2023/08/07 03:26:09;;;;;;;6.30;2.13;;;;;13.30;98448.00;;;;5038239;28;20095;-63
2023/08/07 03:28:39;;;;;;;7.65;1.98;;;;;13.20;98457.00;;;;5038669;28;20045;-64
2023/08/07 03:31:06;;;;;;;2.55;2.08;;;;;13.20;98464.00;;;;5054347;28;20703;-64
2023/08/07 03:33:34;;;;;;;6.88;2.45;;;;;13.20;98459.00;;;;5054001;28;20045;-64
2023/08/07 03:36:01;;;;;;;8.55;2.17;;;;;13.20;98464.00;;;;5054175;28;20055;-64
2023/08/07 03:38:28;;;;;;;5.18;2.17;;;;;13.20;98463.00;;;;5072295;28;20064;-64
2023/08/07 03:40:56;;;;;;;5.43;2.20;;;;;13.20;98463.00;;;;5037571;28;20040;-64
2023/08/07 03:43:23;;;;;;;6.03;2.15;;;;;13.20;98461.00;;;;5054209;28;20635;-64
2023/08/07 03:45:56;;;;;;;4.80;1.85;;;;;13.20;98464.00;;;;5053981;28;20044;-64
2023/08/07 03:48:29;;;;;;;6.53;2.45;;;;;13.20;98469.00;;;;5038427;28;20051;-64
2023/08/07 03:51:03;;;;;;;4.18;2.10;;;;;13.20;98469.00;;;;5037459;28;20040;-64
2023/08/07 03:53:33;;;;;;;4.03;2.10;;;;;13.30;98463.00;;;;5054015;28;20132;-63
2023/08/07 03:56:00;;;;;;;4.93;2.10;;;;;13.20;98451.00;;;;5053861;28;20110;-64
2023/08/07 03:58:26;;;;;;;5.65;1.95;;;;;13.30;98455.00;;;;5072066;28;20041;-64
2023/08/07 04:00:53;;;;;;;6.07;1.83;;;;;13.20;98463.00;;;;5054039;28;20060;-64
2023/08/07 04:03:20;;;;;;;5.30;1.95;;;;;13.20;98462.00;;;;5054005;28;20048;-64
2023/08/07 04:05:51;;;;;;;4.70;2.00;;;;;13.20;98461.00;;;;5054055;28;20056;-64
2023/08/07 04:08:18;;;;;;;5.93;1.95;;;;;13.20;98456.00;;;;5054465;28;20135;-63
2023/08/07 04:10:44;;;;;;;7.82;2.38;;;;;13.20;98457.00;;;;5053500;28;20040;-64
2023/08/07 04:13:11;;;;;;;4.60;2.08;;;;;13.20;98459.00;;;;5053790;28;20437;-64
2023/08/07 04:15:37;;;;;;;5.53;2.75;;;;;13.20;98458.00;;;;5053703;28;20051;-63
2023/08/07 04:18:05;;;;;;;6.43;2.28;;;;;13.20;98465.00;;;;5053701;28;20071;-64
2023/08/07 04:20:32;;;;;;;2.88;1.85;;;;;13.20;98465.00;;;;5071807;28;20044;-64
2023/08/07 04:22:59;;;;;;;6.10;2.00;;;;;13.20;98460.00;;;;5053871;28;20053;-64
2023/08/07 04:25:25;;;;;;;4.45;1.95;;;;;13.10;98457.00;;;;5053867;28;20044;-64
2023/08/07 04:27:52;;;;;;;5.53;2.47;;;;;13.10;98452.00;;;;5056373;28;20064;-64
2023/08/07 04:30:19;;;;;;;5.97;2.20;;;;;13.10;98455.00;;;;5060701;28;20041;-64
2023/08/07 04:32:45;;;;;;;8.15;2.15;;;;;13.20;98448.00;;;;5042218;28;20040;-63
2023/08/07 04:35:12;;;;;;;6.70;2.72;;;;;13.20;98456.00;;;;5057534;28;20064;-63
2023/08/07 04:37:38;;;;;;;7.90;2.50;;;;;13.20;98463.00;;;;5058241;28;20051;-63
2023/08/07 04:40:08;;;;;;;5.22;2.40;;;;;13.20;98460.00;;;;5076501;28;20036;-63
2023/08/07 04:42:35;;;;;;;6.75;2.03;;;;;13.20;98467.00;;;;5077138;28;20052;-63
2023/08/07 04:45:01;;;;;;;4.75;2.17;;;;;13.20;98458.00;;;;5059135;28;20049;-64
2023/08/07 04:47:28;;;;;;;8.23;2.90;;;;;13.20;98462.00;;;;5059640;28;20041;-64
2023/08/07 04:49:55;;;;;;;4.60;2.10;;;;;13.20;98464.00;;;;5042007;28;20131;-64
2023/08/07 04:52:21;;;;;;;6.32;2.58;;;;;13.20;98471.00;;;;5059095;28;20051;-62
2023/08/07 04:54:52;;;;;;;5.00;2.08;;;;;13.30;98475.00;;;;5061213;28;20421;-61
2023/08/07 04:57:18;;;;;;;4.13;2.15;;;;;13.30;98477.00;;;;5076450;28;20048;-62
2023/08/07 04:59:45;;;;;;;9.85;4.18;;;;;13.30;98474.00;;;;5058932;28;20517;-63
2023/08/07 05:02:12;;;;;;;3.50;1.90;;;;;13.30;98490.00;;;;5057780;28;20106;-62
2023/08/07 05:04:38;;;;;;;6.32;3.00;;;;;13.30;98465.00;;;;5057861;28;20382;-62
2023/08/07 05:07:05;;;;;;;6.03;2.15;;;;;13.30;98483.00;;;;5041313;28;20118;-62
2023/08/07 05:09:32;;;;;;;6.95;3.00;;;;;13.30;98479.00;;;;5042166;28;20071;-63
2023/08/07 05:11:58;;;;;;;7.15;2.13;;;;;13.30;98487.00;;;;5076882;28;20043;-62
2023/08/07 05:14:25;;;;;;;3.33;1.83;;;;;13.30;98490.00;;;;5078815;28;20047;-62
2023/08/07 05:16:51;;;;;;;3.00;2.08;;;;;13.30;98481.00;;;;5044026;28;20505;-62
2023/08/07 05:19:18;;;;;;;8.95;2.50;;;;;13.40;98486.00;;;;5058472;28;20477;-63
2023/08/07 05:21:44;;;;;;;6.70;2.25;;;;;13.40;98479.00;;;;5076768;28;20037;-62
2023/08/07 05:24:12;;;;;;;6.50;2.10;;;;;13.40;98487.00;;;;5075703;28;20106;-62
2023/08/07 05:26:39;;;;;;;4.88;2.38;;;;;13.50;98491.00;;;;5041514;28;20055;-63
2023/08/07 05:29:06;;;;;;;3.30;1.77;;;;;13.60;98497.00;;;;5041711;28;20115;-63
2023/08/07 05:31:33;;;;;;;3.95;1.75;;;;;13.60;98502.00;;;;5057923;28;20366;-63
2023/08/07 05:34:00;;;;;;;3.78;1.90;;;;;13.70;98495.00;;;;5058903;28;20697;-62
2023/08/07 05:36:27;;;;;;;4.78;1.95;;;;;13.70;98499.00;;;;5058812;28;20155;-63
2023/08/07 05:38:53;;;;;;;4.65;2.42;;;;;13.70;98500.00;;;;5057132;28;20051;-63
2023/08/07 05:41:20;;;;;;;6.95;2.20;;;;;13.70;98496.00;;;;5059594;28;20055;-62
2023/08/07 05:43:47;;;;;;;5.45;2.10;;;;;13.70;98502.00;;;;5042118;28;20386;-63
2023/08/07 05:46:13;;;;;;;5.90;2.00;;;;;13.80;98509.00;;;;5075694;28;20100;-63
2023/08/07 05:48:40;;;;;;;4.95;1.83;;;;;13.80;98506.00;;;;5040385;28;20083;-62
2023/08/07 05:51:07;;;;;;;3.22;1.77;;;;;13.90;98504.00;;;;5075070;28;20048;-62
2023/08/07 05:53:36;;;;;;;4.85;1.90;;;;;13.90;98506.00;;;;5076328;28;20051;-63
2023/08/07 05:56:03;;;;;;;2.35;1.77;;;;;14.00;98500.00;;;;5058082;28;20051;-62
2023/08/07 05:58:30;;;;;;;2.92;1.85;;;;;14.20;98507.00;;;;5075204;28;20048;-63
2023/08/07 06:00:56;;;;;;;3.88;1.80;;;;;14.40;98516.00;;;;5040412;28;20044;-62
2023/08/07 06:03:23;;;;;;;4.90;2.47;;;;;14.50;98513.00;;;;5058553;28;20052;-63
2023/08/07 06:05:50;;;;;;;6.90;1.70;;;;;14.50;98511.00;;;;5057424;28;20058;-63
2023/08/07 06:08:16;;;;;;;3.90;1.70;;;;;14.50;98513.00;;;;5075312;28;20054;-62
2023/08/07 06:10:43;;;;;;;4.35;1.95;;;;;14.50;98522.00;;;;5056364;28;20047;-63
2023/08/07 06:13:09;;;;;;;6.85;2.13;;;;;14.50;98519.00;;;;5057115;28;20112;-63
2023/08/07 06:15:45;;;;;;;4.63;1.88;;;;;14.50;98523.00;;;;5074571;28;20563;-62
2023/08/07 06:18:12;;;;;;;3.67;2.10;;;;;14.60;98531.00;;;;5057434;28;20054;-62
2023/08/07 06:20:38;;;;;;;3.30;1.80;;;;;14.60;98531.00;;;;5074913;28;20545;-63
2023/08/07 06:23:05;;;;;;;2.70;1.55;;;;;14.70;98535.00;;;;5039458;28;20049;-62
2023/08/07 06:25:31;;;;;;;5.82;2.30;;;;;14.60;98538.00;;;;5056045;28;20516;-62
2023/08/07 06:27:58;;;;;;;4.43;1.92;;;;;14.70;98528.00;;;;5039629;28;20048;-62
2023/08/07 06:30:24;;;;;;;4.60;1.90;;;;;14.70;98539.00;;;;5055682;28;20140;-64
2023/08/07 06:32:51;;;;;;;5.88;2.10;;;;;14.70;98542.00;;;;5056690;28;20131;-63
2023/08/07 06:35:18;;;;;;;4.95;1.95;;;;;14.80;98554.00;;;;5073252;28;20094;-63
2023/08/07 06:37:44;;;;;;;6.13;1.80;;;;;14.70;98557.00;;;;5055358;28;20131;-63
2023/08/07 06:40:11;;;;;;;3.65;2.00;;;;;14.70;98556.00;;;;5072763;28;20044;-64
2023/08/07 06:42:38;;;;;;;3.38;1.75;;;;;14.70;98553.00;;;;5055302;28;20049;-63
2023/08/07 06:45:05;;;;;;;7.80;1.95;;;;;14.70;98553.00;;;;5055271;28;20531;-63
2023/08/07 06:47:31;;;;;;;3.22;1.77;;;;;14.80;98551.00;;;;5073295;28;20052;-64
2023/08/07 06:49:58;;;;;;;4.70;1.80;;;;;14.80;98558.00;;;;5054945;28;20078;-64
2023/08/07 06:52:24;;;;;;;3.03;1.80;;;;;14.80;98549.00;;;;5054902;28;20052;-63
2023/08/07 06:54:52;;;;;;;3.95;1.80;;;;;14.90;98558.00;;;;5072408;28;20051;-63
2023/08/07 06:57:18;;;;;;;6.82;2.65;;;;;14.90;98562.00;;;;5054701;28;20041;-63
2023/08/07 06:59:47;;;;;;;2.20;1.85;;;;;15.00;98557.00;;;;5054896;28;20098;-63
2023/08/07 07:02:14;;;;;;;5.00;2.00;;;;;15.20;98562.00;;;;5054779;28;20135;-63
2023/08/07 07:04:41;;;;;;;2.10;1.73;;;;;15.20;98572.00;;;;5037833;28;20052;-63
2023/08/07 07:07:07;;;;;;;3.67;1.98;;;;;15.20;98575.00;;;;5038085;28;20183;-62
2023/08/07 07:09:34;;;;;;;2.85;1.83;;;;;15.20;98569.00;;;;5072446;28;20049;-63
2023/08/07 07:12:00;;;;;;;3.38;1.70;;;;;15.20;98570.00;;;;5037904;28;20648;-63
2023/08/07 07:14:27;;;;;;;8.10;1.98;;;;;15.30;98566.00;;;;5072199;28;20047;-63
2023/08/07 07:16:53;;;;;;;4.47;1.90;;;;;15.40;98574.00;;;;5054756;28;20068;-63
2023/08/07 07:19:20;;;;;;;6.32;1.90;;;;;15.40;98572.00;;;;5072074;28;20040;-63
2023/08/07 07:21:47;;;;;;;6.55;1.85;;;;;15.50;98578.00;;;;5072163;28;20036;-63
2023/08/07 07:24:13;;;;;;;4.22;1.80;;;;;15.60;98576.00;;;;5054303;28;20048;-63
2023/08/07 07:26:40;;;;;;;5.15;1.77;;;;;15.50;98580.00;;;;5072249;28;20044;-62
2023/08/07 07:29:06;;;;;;;6.65;3.00;;;;;15.60;98577.00;;;;5037595;28;20049;-61
2023/08/07 07:31:33;;;;;;;4.45;1.80;;;;;15.70;98581.00;;;;5072076;28;20050;-62
2023/08/07 07:34:00;;;;;;;3.35;1.77;;;;;15.80;98580.00;;;;5054003;28;20041;-63
2023/08/07 07:36:26;;;;;;;3.88;1.50;;;;;15.90;98584.00;;;;5071883;28;20094;-60
2023/08/07 07:38:53;;;;;;;5.68;1.70;;;;;16.00;98593.00;;;;5054156;28;20040;-59
2023/08/07 07:41:19;;;;;;;2.53;1.30;;;;;16.00;98593.00;;;;5071688;28;20036;-60
2023/08/07 07:43:46;;;;;;;3.95;1.90;;;;;16.10;98586.00;;;;5071620;28;20052;-59
2023/08/07 07:46:13;;;;;;;3.30;1.63;;;;;16.10;98598.00;;;;5053333;28;20067;-59
2023/08/07 07:48:39;;;;;;;6.80;2.17;;;;;16.20;98595.00;;;;5036795;28;20045;-59
2023/08/07 07:51:06;;;;;;;6.53;2.47;;;;;16.30;98595.00;;;;5071530;28;20105;-59
2023/08/07 07:53:32;;;;;;;3.38;1.88;;;;;16.40;98595.00;;;;5071745;28;20135;-59
2023/08/07 07:55:59;;;;;;;3.65;1.88;;;;;16.50;98598.00;;;;5071798;28;20588;-60
2023/08/07 07:58:25;;;;;;;5.68;1.95;;;;;16.60;98593.00;;;;5071726;28;20504;-60
2023/08/07 08:00:53;;;;;;;6.72;1.85;;;;;16.70;98593.00;;;;5071525;28;20051;-60
2023/08/07 08:03:21;;;;;;;6.60;1.77;;;;;16.80;98597.00;;;;5073691;28;20516;-59
2023/08/07 08:05:51;;;;;;;2.40;1.40;;;;;16.80;98595.00;;;;5075682;28;20040;-60
2023/08/07 08:08:18;;;;;;;4.75;1.60;;;;;16.90;98600.00;;;;5075692;28;20041;-59
2023/08/07 08:10:47;;;;;;;5.70;2.10;;;;;17.00;98606.00;;;;5075311;28;20604;-59
2023/08/07 08:13:15;;;;;;;5.35;1.67;;;;;17.10;98611.00;;;;5075430;28;20044;-60
2023/08/07 08:15:42;;;;;;;4.45;1.77;;;;;17.10;98616.00;;;;5075321;28;20118;-62
2023/08/07 08:18:09;;;;;;;4.20;1.60;;;;;17.10;98631.00;;;;5058702;28;20052;-61
2023/08/07 08:20:37;;;;;;;4.38;1.73;;;;;17.00;98625.00;;;;5076341;28;20127;-62
2023/08/07 08:23:04;;;;;;;3.80;1.70;;;;;16.90;98631.00;;;;5076667;28;20048;-62
2023/08/07 08:25:32;;;;;;;6.35;1.88;;;;;16.80;98634.00;;;;5075494;28;20401;-61
2023/08/07 08:28:02;;;;;;;2.90;1.33;;;;;16.80;98626.00;;;;5057641;28;20378;-61
2023/08/07 08:30:29;;;;;;;2.47;1.90;;;;;16.80;98634.00;;;;5074965;28;20106;-61
2023/08/07 08:32:56;;;;;;;3.10;1.63;;;;;16.80;98625.00;;;;5057085;28;20068;-61
2023/08/07 08:35:22;;;;;;;4.45;1.85;;;;;17.00;98631.00;;;;5075241;28;20044;-61
2023/08/07 08:37:49;;;;;;;5.20;1.67;;;;;17.00;98630.00;;;;5075056;28;20044;-61
2023/08/07 08:40:17;;;;;;;3.50;1.73;;;;;17.00;98622.00;;;;5057000;28;20050;-61
2023/08/07 08:42:45;;;;;;;4.05;1.83;;;;;17.10;98627.00;;;;5074954;28;20048;-61
2023/08/07 08:45:14;;;;;;;3.70;1.80;;;;;17.30;98636.00;;;;5074936;28;20044;-61
2023/08/07 08:47:46;;;;;;;4.40;1.83;;;;;17.30;98638.00;;;;5057055;28;20045;-61
2023/08/07 08:50:14;;;;;;;3.90;1.90;;;;;17.30;98633.00;;;;5074615;28;20075;-62
2023/08/07 08:52:44;;;;;;;4.38;1.60;;;;;17.20;98656.00;;;;5074747;28;20047;-61
2023/08/07 08:55:12;;;;;;;5.70;1.95;;;;;17.30;98647.00;;;;5074798;28;20057;-61
2023/08/07 08:57:40;;;;;;;2.67;1.67;;;;;17.30;98643.00;;;;5074843;28;20048;-61
2023/08/07 09:00:25;;;;;;;3.03;1.42;;;;;17.30;98648.00;;;;5074609;28;20252;-62
2023/08/07 09:02:52;;;;;;;2.05;1.40;;;;;17.20;98644.00;;;;5074850;28;20460;-62
2023/08/07 09:05:20;;;;;;;3.83;1.63;;;;;17.30;98650.00;;;;5074741;28;20040;-62
2023/08/07 09:07:47;;;;;;;4.03;1.52;;;;;17.30;98653.00;;;;5074548;28;20068;-62
2023/08/07 09:10:15;;;;;;;4.35;1.65;;;;;17.50;98645.00;;;;5074256;28;20562;-62
2023/08/07 09:13:00;;;;;;;4.40;1.70;;;;;17.60;98655.00;;;;5074300;28;20505;-62
2023/08/07 09:15:29;;;;;;;3.65;1.70;;;;;17.70;98644.00;;;;5074061;28;20127;-63
2023/08/07 09:17:56;;;;;;;3.00;1.63;;;;;17.80;98643.00;;;;5040570;28;20052;-62
2023/08/07 09:20:23;;;;;;;3.25;1.70;;;;;18.00;98653.00;;;;5074700;28;20047;-62
2023/08/07 09:22:50;;;;;;;5.57;2.17;;;;;18.00;98651.00;;;;5057681;28;20044;-62
2023/08/07 09:25:31;;;;;;;6.05;2.00;;;;;18.10;98649.00;;;;5075443;28;20054;-62
2023/08/07 09:27:57;;;;;;;3.95;1.83;;;;;18.00;98657.00;;;;5057038;28;20115;-62
2023/08/07 09:30:28;;;;;;;3.88;1.92;;;;;17.90;98672.00;;;;5056463;28;20079;-62
2023/08/07 09:33:01;;;;;;;5.03;1.50;;;;;17.90;98667.00;;;;5074759;28;20052;-62
2023/08/07 09:35:30;;;;;;;1.95;1.48;;;;;17.80;98667.00;;;;5074660;28;20040;-62
2023/08/07 09:37:58;;;;;;;4.53;1.77;;;;;17.90;98669.00;;;;5056627;28;20040;-62
2023/08/07 09:40:25;;;;;;;5.50;1.73;;;;;18.00;98669.00;;;;5073969;28;20044;-62
2023/08/07 09:42:54;;;;;;;1.90;1.58;;;;;18.10;98668.00;;;;5074020;28;20048;-62
2023/08/07 09:45:31;;;;;;;2.80;1.52;;;;;18.20;98665.00;;;;5056503;28;20045;-61
2023/08/07 09:48:02;;;;;;;2.88;1.80;;;;;18.20;98667.00;;;;5056602;28;20075;-61
2023/08/07 09:50:30;;;;;;;2.15;1.58;;;;;18.20;98666.00;;;;5074144;28;20064;-62
2023/08/07 09:53:00;;;;;;;4.30;1.58;;;;;18.30;98669.00;;;;5073953;28;20203;-61
2023/08/07 09:55:27;;;;;;;6.32;1.40;;;;;18.40;98671.00;;;;5056416;28;20520;-62
2023/08/07 09:57:54;;;;;;;2.55;1.42;;;;;18.50;98674.00;;;;5074146;28;20044;-62
2023/08/07 10:00:21;;;;;;;2.63;1.27;;;;;18.60;98663.00;;;;5074081;28;20036;-62
2023/08/07 10:02:49;;;;;;;4.57;1.60;;;;;18.60;98673.00;;;;5055883;28;20040;-62
2023/08/07 10:05:17;;;;;;;5.28;1.98;;;;;18.70;98656.00;;;;5056254;28;20447;-62
2023/08/07 10:07:43;;;;;;;3.85;1.42;;;;;18.90;98670.00;;;;5056544;28;20564;-63
2023/08/07 10:10:11;;;;;;;6.35;2.10;;;;;19.10;98665.00;;;;5075391;28;20123;-62
2023/08/07 10:12:38;;;;;;;4.03;1.50;;;;;19.20;98672.00;;;;5075183;28;20048;-62
2023/08/07 10:15:07;;;;;;;2.60;1.52;;;;;19.20;98671.00;;;;5075522;28;20118;-62
2023/08/07 10:17:33;;;;;;;4.10;1.40;;;;;19.30;98667.00;;;;5075094;28;20111;-63
2023/08/07 10:20:01;;;;;;;3.55;1.45;;;;;19.30;98676.00;;;;5074561;28;20167;-62
2023/08/07 10:22:30;;;;;;;3.50;1.60;;;;;19.30;98669.00;;;;5057207;28;20406;-62
2023/08/07 10:25:00;;;;;;;2.60;1.63;;;;;19.30;98674.00;;;;5074714;28;20127;-62
2023/08/07 10:27:30;;;;;;;3.15;1.60;;;;;19.30;98682.00;;;;5074917;28;21168;-62
2023/08/07 10:29:58;;;;;;;5.15;1.65;;;;;19.20;98683.00;;;;5056700;28;20063;-62
2023/08/07 10:32:26;;;;;;;1.67;1.48;;;;;19.20;98674.00;;;;5074753;28;20048;-62
2023/08/07 10:34:53;;;;;;;3.97;1.98;;;;;19.10;98675.00;;;;5055262;28;20044;-62
2023/08/07 10:37:42;;;;;;;1.65;1.27;;;;;19.00;98677.00;;;;5073498;28;20055;-62
2023/08/07 10:40:11;;;;;;;2.53;1.35;;;;;19.00;98678.00;;;;5072868;28;20094;-63
2023/08/07 10:43:11;;;;;;;2.35;1.35;;;;;19.10;98676.00;;;;5055105;28;20489;-63
2023/08/07 10:45:38;;;;;;;2.03;1.30;;;;;19.20;98668.00;;;;5072857;28;20040;-62
2023/08/07 10:48:06;;;;;;;4.30;1.23;;;;;19.40;98676.00;;;;5054888;28;20044;-63
2023/08/07 10:50:35;;;;;;;1.77;1.00;;;;;19.50;98675.00;;;;5072414;28;20489;-63
2023/08/07 10:53:03;;;;;;;1.73;1.38;;;;;19.60;98675.00;;;;5072762;28;20036;-64
2023/08/07 10:55:45;;;;;;;3.72;1.25;;;;;19.90;98668.00;;;;5072691;28;20063;-62
2023/08/07 10:58:23;;;;;;;1.52;1.02;;;;;20.10;98669.00;;;;5054724;28;20512;-64
2023/08/07 11:00:51;;;;;;;2.35;1.40;;;;;20.20;98669.00;;;;5072272;28;20123;-64
2023/08/07 11:03:27;;;;;;;3.90;1.20;;;;;20.20;98675.00;;;;5072292;28;20040;-63
2023/08/07 11:05:58;;;;;;;1.30;1.20;;;;;20.20;98681.00;;;;5072508;28;20041;-63
2023/08/07 11:08:24;;;;;;;2.10;1.20;;;;;20.20;98676.00;;;;5054714;28;20059;-63
2023/08/07 11:10:52;;;;;;;1.25;1.13;;;;;20.20;98670.00;;;;5072326;28;20036;-63
2023/08/07 11:13:19;;;;;;;4.32;1.20;;;;;20.30;98672.00;;;;5054555;28;20041;-63
2023/08/07 11:15:46;;;;;;;2.63;1.33;;;;;20.60;98677.00;;;;5072500;28;20128;-63
2023/08/07 11:18:13;;;;;;;3.00;1.20;;;;;20.90;98682.00;;;;5054645;28;20371;-63
2023/08/07 11:20:40;;;;;;;2.65;1.52;;;;;21.00;98687.00;;;;5072435;28;20044;-63
2023/08/07 11:23:07;;;;;;;2.30;1.20;;;;;21.10;98679.00;;;;5072435;28;20045;-63
2023/08/07 11:25:34;;;;;;;2.67;1.40;;;;;21.20;98686.00;;;;5072315;28;20044;-63
2023/08/07 11:28:01;;;;;;;2.90;1.20;;;;;21.20;98682.00;;;;5054468;28;20405;-63
2023/08/07 11:30:27;;;;;;;2.08;1.10;;;;;21.30;98678.00;;;;5072042;28;20040;-63
2023/08/07 11:32:54;;;;;;;1.42;1.13;;;;;21.30;98673.00;;;;5053690;28;20052;-63
2023/08/07 11:35:23;;;;;;;1.92;1.23;;;;;21.20;98682.00;;;;5072026;28;20514;-63
2023/08/07 11:37:50;;;;;;;1.38;1.20;;;;;21.20;98668.00;;;;5071305;28;20045;-63
2023/08/07 11:40:17;;;;;;;2.20;1.58;;;;;21.30;98675.00;;;;5071714;28;20511;-63
2023/08/07 11:42:43;;;;;;;2.03;1.20;;;;;21.30;98672.00;;;;5072009;28;20086;-63
2023/08/07 11:45:10;;;;;;;1.20;1.10;;;;;21.20;98686.00;;;;5072034;28;20112;-63
2023/08/07 11:47:37;;;;;;;1.92;1.38;;;;;21.20;98685.00;;;;5072071;28;20048;-63
2023/08/07 11:50:04;;;;;;;1.88;1.10;;;;;21.10;98681.00;;;;5053806;28;20049;-63
2023/08/07 11:52:31;;;;;;;3.42;1.30;;;;;21.10;98683.00;;;;5071716;28;20032;-63
2023/08/07 11:54:57;;;;;;;2.72;1.27;;;;;21.20;98685.00;;;;5072013;28;20037;-63
2023/08/07 11:57:24;;;;;;;2.15;1.27;;;;;21.20;98685.00;;;;5072009;28;20060;-63
2023/08/07 11:59:51;;;;;;;1.85;1.27;;;;;21.10;98677.00;;;;5071660;28;20047;-63
2023/08/07 12:02:23;;;;;;;1.77;1.20;;;;;21.00;98686.00;;;;5037744;28;20055;-62
2023/08/07 12:04:50;;;;;;;1.25;1.15;;;;;21.00;98683.00;;;;5054004;28;20056;-62
2023/08/07 12:07:19;;;;;;;2.83;1.20;;;;;21.30;98688.00;;;;5071895;28;20679;-63
2023/08/07 12:09:47;;;;;;;2.17;1.30;;;;;21.40;98681.00;;;;5053954;28;20413;-63
2023/08/07 12:12:14;;;;;;;3.13;1.30;;;;;21.50;98682.00;;;;5054016;28;20047;-63
2023/08/07 12:14:40;;;;;;;1.15;1.00;;;;;21.60;98674.00;;;;5071688;28;20513;-63
2023/08/07 12:17:09;;;;;;;1.80;1.30;;;;;21.90;98675.00;;;;5071463;28;20048;-63
2023/08/07 12:19:40;;;;;;;2.60;1.25;;;;;22.00;98682.00;;;;5053402;28;20509;-63
2023/08/07 12:22:09;;;;;;;2.38;1.38;;;;;22.10;98668.00;;;;5071396;28;20603;-63